createdAt,value
2022-12-03T00:01:36.439Z,10.48
2022-12-03T00:04:04.049Z,12.88
2022-12-03T00:06:34.528Z,10.15
2022-12-03T00:09:03.751Z,13.18
2022-12-03T00:11:31.420Z,9.63
2022-12-03T00:13:58.965Z,13.48
2022-12-03T00:16:26.597Z,12.88
2022-12-03T00:18:54.159Z,10.25
2022-12-03T00:21:24.375Z,9.88
2022-12-03T00:23:52.250Z,14.95
2022-12-03T00:26:21.123Z,10.45
2022-12-03T00:28:48.696Z,8.85
2022-12-03T00:31:16.298Z,10.68
2022-12-03T00:33:43.915Z,9.30
2022-12-03T00:36:13.774Z,13.52
2022-12-03T00:38:41.437Z,9.63
2022-12-03T00:41:08.957Z,11.98
2022-12-03T00:43:37.879Z,11.93
2022-12-03T00:46:05.474Z,10.70
2022-12-03T00:48:33.034Z,10.95
2022-12-03T00:51:00.538Z,8.38
2022-12-03T00:53:28.075Z,9.85
2022-12-03T00:55:55.627Z,12.02
2022-12-03T00:58:23.138Z,11.00
2022-12-03T01:00:52.011Z,9.02
2022-12-03T01:03:19.567Z,10.35
2022-12-03T01:05:47.160Z,6.55
2022-12-03T01:08:14.817Z,9.38
2022-12-03T01:10:42.383Z,9.95
2022-12-03T01:13:09.996Z,11.57
2022-12-03T01:15:37.580Z,8.95
2022-12-03T01:18:06.569Z,10.43
2022-12-03T01:20:36.278Z,7.40
2022-12-03T01:23:03.839Z,11.40
2022-12-03T01:25:31.380Z,13.77
2022-12-03T01:27:58.918Z,11.52
2022-12-03T01:30:26.450Z,9.50
2022-12-03T01:32:52.994Z,13.57
2022-12-03T01:35:21.877Z,11.98
2022-12-03T01:37:49.338Z,11.50
2022-12-03T01:40:18.104Z,14.68
2022-12-03T01:42:45.601Z,11.52
2022-12-03T01:45:18.707Z,10.27
2022-12-03T01:47:46.292Z,8.50
2022-12-03T01:50:16.608Z,12.02
2022-12-03T01:52:46.308Z,7.43
2022-12-03T01:55:15.126Z,8.52
2022-12-03T01:57:44.926Z,12.50
2022-12-03T02:00:14.086Z,10.45
2022-12-03T02:02:41.615Z,10.88
2022-12-03T02:05:15.890Z,10.90
2022-12-03T02:07:44.821Z,9.20
2022-12-03T02:10:13.275Z,8.63
2022-12-03T02:12:42.026Z,8.27
2022-12-03T02:15:10.370Z,9.02
2022-12-03T02:17:38.346Z,7.95
2022-12-03T02:20:08.771Z,8.68
2022-12-03T02:22:39.150Z,9.05
2022-12-03T02:25:10.804Z,9.20
2022-12-03T02:27:38.375Z,12.90
2022-12-03T02:30:06.797Z,8.63
2022-12-03T02:32:34.383Z,11.10
2022-12-03T02:35:01.930Z,10.48
2022-12-03T02:37:31.705Z,9.20
2022-12-03T02:40:00.285Z,8.25
2022-12-03T02:42:38.863Z,7.93
2022-12-03T02:45:08.655Z,11.60
2022-12-03T02:47:37.930Z,12.20
2022-12-03T02:50:06.272Z,16.63
2022-12-03T02:52:33.792Z,9.88
2022-12-03T02:55:02.711Z,9.73
2022-12-03T02:57:31.599Z,8.23
2022-12-03T02:59:59.231Z,16.33
2022-12-03T03:02:28.410Z,11.23
2022-12-03T03:04:56.496Z,14.07
2022-12-03T03:07:24.275Z,10.40
2022-12-03T03:09:51.858Z,11.73
2022-12-03T03:12:19.530Z,7.57
2022-12-03T03:14:48.416Z,9.70
2022-12-03T03:17:15.959Z,8.57
2022-12-03T03:19:43.717Z,8.50
2022-12-03T03:22:11.719Z,10.73
2022-12-03T03:24:39.544Z,11.02
2022-12-03T03:27:07.374Z,13.30
2022-12-03T03:29:35.130Z,10.23
2022-12-03T03:32:04.356Z,10.88
2022-12-03T03:34:33.888Z,9.93
2022-12-03T03:37:01.431Z,13.25
2022-12-03T03:39:28.963Z,13.38
2022-12-03T03:41:56.577Z,10.43
2022-12-03T03:44:24.104Z,11.20
2022-12-03T03:46:51.612Z,9.77
2022-12-03T03:49:20.495Z,9.20
2022-12-03T03:51:48.142Z,11.75
2022-12-03T03:54:15.954Z,10.23
2022-12-03T03:56:43.610Z,7.95
2022-12-03T03:59:11.201Z,12.18
2022-12-03T04:01:38.936Z,12.73
2022-12-03T04:04:07.947Z,9.95
2022-12-03T04:06:36.857Z,11.55
2022-12-03T04:09:04.376Z,18.80
2022-12-03T04:11:49.498Z,13.02
2022-12-03T04:14:17.058Z,9.90
2022-12-03T04:16:44.701Z,14.40
2022-12-03T04:19:12.319Z,8.23
2022-12-03T04:21:58.620Z,9.25
2022-12-03T04:24:26.191Z,9.20
2022-12-03T04:27:16.294Z,13.20
2022-12-03T04:29:43.839Z,10.25
2022-12-03T04:32:29.154Z,13.15
2022-12-03T04:35:13.999Z,8.80
2022-12-03T04:37:42.925Z,10.73
2022-12-03T04:40:31.386Z,8.10
2022-12-03T04:42:58.982Z,8.63
2022-12-03T04:45:26.546Z,9.20
2022-12-03T04:47:54.261Z,7.57
2022-12-03T04:50:21.781Z,11.07
2022-12-03T04:52:50.670Z,9.48
2022-12-03T04:55:18.716Z,16.98
2022-12-03T04:57:46.375Z,10.63
2022-12-03T05:00:14.776Z,12.32
2022-12-03T05:02:42.405Z,8.50
2022-12-03T05:05:10.870Z,11.60
2022-12-03T05:07:38.454Z,9.95
2022-12-03T05:10:08.406Z,11.55
2022-12-03T05:12:36.090Z,10.82
2022-12-03T05:15:04.263Z,11.80
2022-12-03T05:17:32.033Z,12.52
2022-12-03T05:20:17.583Z,13.50
2022-12-03T05:22:45.126Z,13.25
2022-12-03T05:25:13.965Z,16.35
2022-12-03T05:27:41.459Z,14.00
2022-12-03T05:30:09.648Z,10.68
2022-12-03T05:32:37.140Z,15.25
2022-12-03T05:35:04.945Z,12.05
2022-12-03T05:37:32.465Z,13.70
2022-12-03T05:39:59.994Z,12.82
2022-12-03T05:42:46.659Z,11.88
2022-12-03T05:45:14.256Z,12.20
2022-12-03T05:47:41.808Z,12.10
2022-12-03T05:50:09.528Z,12.52
2022-12-03T05:52:37.067Z,15.85
2022-12-03T05:55:05.146Z,20.80
2022-12-03T05:57:34.004Z,16.13
2022-12-03T06:00:01.503Z,12.50
2022-12-03T06:02:29.138Z,14.18
2022-12-03T06:04:56.855Z,22.40
2022-12-03T06:07:24.601Z,15.93
2022-12-03T06:09:52.210Z,12.77
2022-12-03T06:12:19.723Z,25.77
2022-12-03T06:14:48.717Z,10.88
2022-12-03T06:17:16.210Z,13.60
2022-12-03T06:19:45.676Z,11.18
2022-12-03T06:22:15.268Z,10.45
2022-12-03T06:24:42.806Z,18.27
2022-12-03T06:27:10.415Z,17.05
2022-12-03T06:29:37.963Z,16.83
2022-12-03T06:32:07.095Z,12.32
2022-12-03T06:34:34.903Z,20.35
2022-12-03T06:37:02.523Z,17.98
2022-12-03T06:39:30.057Z,18.30
2022-12-03T06:41:57.687Z,16.60
2022-12-03T06:44:25.361Z,15.63
2022-12-03T06:46:53.067Z,19.30
2022-12-03T06:49:22.028Z,18.63
2022-12-03T06:51:49.602Z,26.95
2022-12-03T06:54:17.706Z,20.90
2022-12-03T06:56:45.796Z,22.55
2022-12-03T06:59:15.548Z,22.98
2022-12-03T07:01:43.390Z,20.90
2022-12-03T07:04:11.734Z,19.85
2022-12-03T07:06:40.825Z,20.00
2022-12-03T07:09:09.575Z,25.00
2022-12-03T07:11:40.837Z,20.05
2022-12-03T07:14:09.717Z,17.67
2022-12-03T07:16:37.562Z,20.58
2022-12-03T07:19:06.420Z,43.72
2022-12-03T07:21:34.390Z,24.55
2022-12-03T07:24:03.260Z,26.85
2022-12-03T07:26:30.992Z,24.27
2022-12-03T07:28:58.607Z,16.83
2022-12-03T07:31:26.314Z,21.67
2022-12-03T07:33:53.913Z,23.83
2022-12-03T07:36:21.568Z,19.35
2022-12-03T07:38:49.197Z,19.25
2022-12-03T07:41:18.093Z,17.40
2022-12-03T07:43:45.785Z,19.42
2022-12-03T07:46:13.909Z,23.30
2022-12-03T07:48:44.571Z,20.40
2022-12-03T07:51:15.263Z,27.52
2022-12-03T07:53:43.255Z,18.42
2022-12-03T07:56:11.054Z,33.38
2022-12-03T07:58:39.916Z,27.55
2022-12-03T08:01:07.509Z,25.33
2022-12-03T08:03:35.062Z,26.65
2022-12-03T08:06:02.659Z,32.17
2022-12-03T08:08:30.217Z,20.33
2022-12-03T08:10:57.980Z,21.70
2022-12-03T08:13:25.474Z,20.55
2022-12-03T08:15:56.876Z,16.65
2022-12-03T08:18:28.965Z,23.73
2022-12-03T08:20:59.885Z,18.52
2022-12-03T08:23:27.428Z,27.48
2022-12-03T08:25:55.054Z,23.83
2022-12-03T08:28:23.844Z,23.35
2022-12-03T08:30:58.352Z,25.58
2022-12-03T08:33:28.206Z,21.85
2022-12-03T08:35:56.851Z,26.88
2022-12-03T08:38:25.917Z,26.77
2022-12-03T08:40:55.475Z,19.33
2022-12-03T08:43:24.189Z,24.35
2022-12-03T08:45:52.352Z,28.42
2022-12-03T08:48:32.777Z,24.08
2022-12-03T08:51:05.343Z,24.92
2022-12-03T08:53:34.607Z,24.80
2022-12-03T08:56:02.891Z,21.88
2022-12-03T08:58:41.291Z,25.52
2022-12-03T09:01:27.706Z,29.90
2022-12-03T09:03:58.982Z,21.92
2022-12-03T09:06:26.536Z,22.08
2022-12-03T09:08:54.222Z,25.58
2022-12-03T09:11:21.922Z,20.65
2022-12-03T09:13:49.490Z,24.85
2022-12-03T09:16:17.086Z,29.83
2022-12-03T09:18:46.186Z,25.15
2022-12-03T09:21:23.221Z,24.80
2022-12-03T09:23:54.152Z,21.65
2022-12-03T09:26:26.280Z,23.50
2022-12-03T09:28:54.591Z,25.73
2022-12-03T09:31:22.381Z,34.50
2022-12-03T09:33:52.650Z,24.55
2022-12-03T09:36:21.889Z,27.83
2022-12-03T09:38:52.064Z,30.00
2022-12-03T09:41:35.908Z,25.58
2022-12-03T09:44:05.713Z,29.00
2022-12-03T09:46:37.220Z,25.63
2022-12-03T09:49:10.794Z,19.00
2022-12-03T09:51:43.368Z,20.25
2022-12-03T09:54:11.693Z,26.27
2022-12-03T09:57:04.076Z,21.77
2022-12-03T09:59:36.465Z,33.05
2022-12-03T10:02:05.119Z,28.02
2022-12-03T10:04:33.193Z,34.45
2022-12-03T10:07:02.442Z,35.78
2022-12-03T10:09:31.990Z,29.25
2022-12-03T10:12:08.961Z,24.77
2022-12-03T10:14:36.574Z,24.50
2022-12-03T10:17:06.340Z,29.55
2022-12-03T10:19:35.683Z,29.65
2022-12-03T10:22:08.516Z,32.40
2022-12-03T10:24:37.726Z,30.85
2022-12-03T10:27:06.338Z,33.78
2022-12-03T10:29:44.613Z,32.78
2022-12-03T10:32:16.990Z,37.17
2022-12-03T10:35:02.086Z,37.15
2022-12-03T10:38:08.555Z,30.55
2022-12-03T10:40:41.801Z,28.80
2022-12-03T10:43:25.497Z,25.80
2022-12-03T10:46:11.387Z,23.08
2022-12-03T10:48:40.455Z,22.98
2022-12-03T10:51:13.137Z,21.40
2022-12-03T10:53:43.025Z,34.42
2022-12-03T10:56:15.671Z,20.15
2022-12-03T10:58:56.490Z,22.33
2022-12-03T11:01:30.586Z,21.95
2022-12-03T11:04:05.292Z,22.63
2022-12-03T11:06:41.003Z,24.70
2022-12-03T11:09:16.570Z,22.35
2022-12-03T11:11:44.660Z,21.23
2022-12-03T11:14:21.241Z,20.63
2022-12-03T11:17:11.662Z,16.02
2022-12-03T11:19:43.566Z,21.80
2022-12-03T11:25:21.811Z,20.25
2022-12-03T11:28:23.986Z,15.07
2022-12-03T11:31:04.516Z,16.88
2022-12-03T11:33:35.096Z,20.50
2022-12-03T11:36:31.679Z,14.35
2022-12-03T11:39:04.192Z,23.48
2022-12-03T11:41:36.355Z,25.52
2022-12-03T11:47:21.750Z,21.60
2022-12-03T11:50:01.075Z,25.87
2022-12-03T11:55:38.627Z,28.42
2022-12-03T11:58:16.175Z,20.05
2022-12-03T12:00:49.288Z,18.25
2022-12-03T12:06:11.010Z,13.90
2022-12-03T12:08:41.211Z,19.30
2022-12-03T12:11:17.721Z,23.73
2022-12-03T12:13:52.462Z,15.30
2022-12-03T12:16:40.297Z,18.08
2022-12-03T12:22:29.277Z,23.30
2022-12-03T12:24:57.420Z,18.73
2022-12-03T12:27:30.228Z,15.43
2022-12-03T12:29:58.790Z,24.83
2022-12-03T12:32:27.886Z,14.10
2022-12-03T12:34:56.306Z,21.85
2022-12-03T12:37:29.170Z,15.50
2022-12-03T12:39:57.872Z,15.00
2022-12-03T12:42:29.798Z,14.57
2022-12-03T12:44:59.602Z,13.73
2022-12-03T12:47:29.936Z,18.00
2022-12-03T12:55:34.798Z,17.42
2022-12-03T12:58:14.374Z,15.40
2022-12-03T13:00:52.088Z,17.75
2022-12-03T13:03:22.085Z,22.90
2022-12-03T13:05:50.413Z,20.83
2022-12-03T13:08:28.288Z,21.48
2022-12-03T13:10:56.434Z,18.30
2022-12-03T13:13:32.885Z,23.52
2022-12-03T13:18:48.158Z,20.05
2022-12-03T13:21:23.814Z,13.50
2022-12-03T13:23:54.501Z,26.80
2022-12-03T13:29:13.353Z,21.83
2022-12-03T13:31:44.221Z,15.60
2022-12-03T13:34:15.326Z,14.63
2022-12-03T13:36:43.402Z,18.98
2022-12-03T13:39:14.781Z,20.05
2022-12-03T13:42:00.971Z,19.27
2022-12-03T13:44:30.841Z,16.77
2022-12-03T13:46:58.703Z,15.15
2022-12-03T13:49:26.782Z,21.60
2022-12-03T13:51:56.739Z,20.05
2022-12-03T13:54:28.001Z,22.15
2022-12-03T13:56:56.134Z,21.38
2022-12-03T13:59:26.451Z,22.55
2022-12-03T14:01:54.255Z,25.98
2022-12-03T14:04:40.543Z,30.92
2022-12-03T14:07:15.653Z,23.52
2022-12-03T14:09:45.737Z,26.80
2022-12-03T14:12:30.957Z,23.80
2022-12-03T14:14:59.279Z,17.67
2022-12-03T14:17:29.128Z,18.90
2022-12-03T14:19:57.143Z,24.55
2022-12-03T14:22:25.439Z,19.30
2022-12-03T14:24:54.586Z,19.38
2022-12-03T14:27:24.732Z,16.77
2022-12-03T14:29:53.084Z,16.67
2022-12-03T14:32:24.167Z,27.88
2022-12-03T14:34:52.226Z,18.38
2022-12-03T14:37:21.936Z,22.08
2022-12-03T14:39:53.219Z,17.05
2022-12-03T14:42:24.714Z,22.95
2022-12-03T14:44:58.026Z,20.52
2022-12-03T14:47:27.085Z,27.65
2022-12-03T14:49:58.526Z,29.27
2022-12-03T14:52:29.146Z,24.42
2022-12-03T14:54:59.396Z,34.50
2022-12-03T14:57:36.903Z,27.08
2022-12-03T15:00:09.569Z,26.67
2022-12-03T15:02:37.139Z,25.75
2022-12-03T15:05:07.239Z,18.40
2022-12-03T15:07:34.823Z,22.05
2022-12-03T15:10:02.582Z,21.38
2022-12-03T15:12:31.575Z,21.08
2022-12-03T15:14:59.271Z,17.33
2022-12-03T15:17:31.597Z,23.42
2022-12-03T15:20:11.932Z,23.90
2022-12-03T15:22:39.463Z,27.67
2022-12-03T15:25:07.688Z,31.83
2022-12-03T15:27:41.481Z,21.38
2022-12-03T15:30:10.224Z,26.00
2022-12-03T15:32:39.311Z,25.73
2022-12-03T15:35:07.243Z,21.42
2022-12-03T15:37:34.854Z,24.13
2022-12-03T15:40:02.397Z,24.15
2022-12-03T15:42:33.364Z,20.88
2022-12-03T15:45:02.221Z,20.85
2022-12-03T15:47:29.755Z,21.42
2022-12-03T15:49:57.346Z,27.25
2022-12-03T15:52:25.000Z,25.08
2022-12-03T15:54:52.628Z,20.08
2022-12-03T15:57:20.094Z,24.00
2022-12-03T15:59:47.870Z,21.73
2022-12-03T16:02:18.598Z,20.70
2022-12-03T16:04:48.311Z,20.48
2022-12-03T16:07:16.203Z,22.83
2022-12-03T16:09:44.912Z,29.00
2022-12-03T16:12:19.851Z,25.02
2022-12-03T16:14:47.573Z,20.20
2022-12-03T16:17:26.520Z,24.65
2022-12-03T16:20:00.693Z,26.27
2022-12-03T16:26:11.880Z,24.92
2022-12-03T16:28:39.392Z,28.02
2022-12-03T16:31:07.242Z,18.88
2022-12-03T16:33:36.376Z,21.42
2022-12-03T16:36:06.953Z,18.15
2022-12-03T16:38:34.995Z,19.67
2022-12-03T16:41:04.058Z,19.25
2022-12-03T16:43:42.806Z,21.10
2022-12-03T16:46:29.881Z,14.80
2022-12-03T16:49:02.556Z,21.30
2022-12-03T16:51:31.643Z,17.23
2022-12-03T16:53:59.225Z,16.92
2022-12-03T16:56:27.535Z,14.75
2022-12-03T16:58:55.289Z,13.52
2022-12-03T17:01:23.503Z,9.15
2022-12-03T17:03:51.316Z,14.65
2022-12-03T17:06:27.801Z,12.23
2022-12-03T17:08:55.303Z,14.95
2022-12-03T17:11:25.100Z,10.75
2022-12-03T17:13:52.804Z,11.55
2022-12-03T17:16:20.550Z,11.93
2022-12-03T17:18:48.252Z,9.27
2022-12-03T17:21:34.941Z,13.90
2022-12-03T17:24:19.201Z,13.40
2022-12-03T17:26:46.765Z,13.85
2022-12-03T17:29:14.324Z,14.55
2022-12-03T17:31:51.006Z,15.80
2022-12-03T17:34:18.782Z,18.48
2022-12-03T17:36:46.549Z,18.70
2022-12-03T17:39:15.602Z,19.40
2022-12-03T17:41:43.210Z,11.25
2022-12-03T17:44:15.072Z,14.95
2022-12-03T17:46:45.926Z,19.23
2022-12-03T17:49:13.564Z,17.77
2022-12-03T17:51:41.181Z,14.57
2022-12-03T17:54:08.963Z,18.10
2022-12-03T17:56:39.598Z,16.45
2022-12-03T17:59:07.062Z,19.08
2022-12-03T18:01:34.677Z,12.93
2022-12-03T18:04:02.273Z,16.90
2022-12-03T18:06:29.890Z,12.95
2022-12-03T18:08:57.474Z,16.48
2022-12-03T18:11:25.237Z,14.95
2022-12-03T18:13:54.126Z,26.15
2022-12-03T18:16:21.777Z,15.80
2022-12-03T18:18:55.056Z,23.77
2022-12-03T18:21:24.113Z,23.67
2022-12-03T18:23:51.848Z,19.05
2022-12-03T18:26:19.496Z,16.77
2022-12-03T18:28:47.034Z,14.07
2022-12-03T18:31:16.655Z,11.00
2022-12-03T18:33:44.213Z,13.75
2022-12-03T18:36:16.917Z,16.75
2022-12-03T18:38:44.897Z,18.35
2022-12-03T18:41:12.567Z,13.25
2022-12-03T18:43:42.428Z,12.63
2022-12-03T18:46:31.088Z,15.40
2022-12-03T18:49:00.900Z,21.08
2022-12-03T18:51:29.706Z,11.32
2022-12-03T18:53:57.235Z,19.27
2022-12-03T18:56:24.822Z,13.40
2022-12-03T18:58:52.296Z,12.98
2022-12-03T19:01:21.737Z,12.05
2022-12-03T19:03:49.890Z,11.38
2022-12-03T19:06:20.292Z,14.98
2022-12-03T19:08:48.280Z,18.80
2022-12-03T19:11:15.801Z,22.15
2022-12-03T19:13:43.639Z,14.18
2022-12-03T19:16:12.087Z,15.23
2022-12-03T19:18:39.751Z,17.88
2022-12-03T19:21:08.237Z,15.80
2022-12-03T19:23:37.317Z,15.55
2022-12-03T19:26:06.604Z,16.55
2022-12-03T19:28:34.135Z,15.57
2022-12-03T19:31:05.303Z,16.48
2022-12-03T19:33:40.728Z,15.25
2022-12-03T19:36:08.731Z,18.88
2022-12-03T19:38:39.755Z,15.63
2022-12-03T19:41:07.940Z,16.42
2022-12-03T19:43:36.473Z,17.27
2022-12-03T19:46:04.797Z,14.93
2022-12-03T19:48:32.720Z,16.63
2022-12-03T19:51:32.457Z,13.13
2022-12-03T19:53:51.739Z,14.43
2022-12-03T19:56:19.875Z,25.90
2022-12-03T19:58:47.900Z,17.80
2022-12-03T20:01:16.766Z,13.48
2022-12-03T20:03:45.092Z,11.38
2022-12-03T20:06:13.283Z,16.05
2022-12-03T20:08:41.803Z,11.27
2022-12-03T20:11:11.453Z,16.25
2022-12-03T20:13:39.062Z,14.05
2022-12-03T20:16:08.602Z,17.17
2022-12-03T20:18:36.689Z,10.15
2022-12-03T20:21:04.223Z,13.65
2022-12-03T20:23:31.716Z,15.38
2022-12-03T20:25:59.384Z,15.95
2022-12-03T20:28:28.874Z,18.38
2022-12-03T20:30:59.571Z,17.40
2022-12-03T20:33:27.128Z,20.10
2022-12-03T20:35:54.902Z,18.40
2022-12-03T20:38:23.803Z,17.13
2022-12-03T20:40:51.531Z,16.13
2022-12-03T20:43:19.206Z,14.88
2022-12-03T20:45:48.193Z,18.65
2022-12-03T20:48:15.922Z,16.83
2022-12-03T20:50:43.683Z,15.57
2022-12-03T20:53:24.354Z,12.82
2022-12-03T20:55:55.851Z,14.77
2022-12-03T20:58:23.476Z,16.30
2022-12-03T21:00:52.467Z,16.50
2022-12-03T21:03:20.151Z,12.93
2022-12-03T21:06:05.171Z,20.70
2022-12-03T21:08:41.589Z,20.75
2022-12-03T21:11:10.572Z,16.33
2022-12-03T21:13:41.328Z,16.23
2022-12-03T21:16:11.498Z,15.27
2022-12-03T21:18:40.324Z,17.67
2022-12-03T21:21:13.908Z,18.17
2022-12-03T21:23:41.496Z,15.80
2022-12-03T21:26:10.870Z,22.65
2022-12-03T21:28:39.451Z,21.15
2022-12-03T21:31:08.972Z,15.05
2022-12-03T21:33:38.141Z,17.20
2022-12-03T21:36:09.571Z,16.65
2022-12-03T21:38:37.584Z,19.38
2022-12-03T21:41:08.055Z,18.27
2022-12-03T21:43:35.882Z,24.55
2022-12-03T21:47:08.086Z,18.60
2022-12-03T21:48:55.322Z,17.52
2022-12-03T21:51:22.859Z,8.48
2022-12-03T21:53:50.881Z,13.73
2022-12-03T21:56:19.745Z,16.63
2022-12-03T21:58:47.702Z,10.93
2022-12-03T22:01:17.924Z,20.17
2022-12-03T22:03:45.593Z,19.92
2022-12-03T22:06:14.899Z,16.48
2022-12-03T22:08:42.956Z,11.68
2022-12-03T22:11:12.289Z,14.93
2022-12-03T22:13:40.096Z,16.48
2022-12-03T22:16:08.298Z,18.77
2022-12-03T22:18:36.269Z,17.50
2022-12-03T22:21:04.956Z,13.77
2022-12-03T22:23:34.185Z,19.70
2022-12-03T22:26:03.084Z,19.85
2022-12-03T22:28:30.647Z,16.75
2022-12-03T22:30:58.908Z,20.45
2022-12-03T22:33:29.460Z,22.73
2022-12-03T22:35:57.814Z,17.10
2022-12-03T22:38:37.304Z,22.25
2022-12-03T22:41:07.040Z,19.13
2022-12-03T22:43:40.186Z,17.92
2022-12-03T22:46:12.386Z,23.48
2022-12-03T22:48:41.132Z,15.85
2022-12-03T22:51:12.889Z,20.10
2022-12-03T22:53:40.393Z,16.05
2022-12-03T22:56:09.250Z,18.17
2022-12-03T22:58:38.574Z,15.93
2022-12-03T23:01:06.245Z,18.35
2022-12-03T23:03:33.963Z,18.55
2022-12-03T23:06:01.554Z,25.85
2022-12-03T23:08:32.138Z,20.77
2022-12-03T23:11:01.668Z,19.27
2022-12-03T23:13:30.577Z,23.20
2022-12-03T23:15:58.355Z,19.83
2022-12-03T23:18:25.918Z,35.38
2022-12-03T23:20:54.392Z,25.10
2022-12-03T23:23:22.628Z,21.23
2022-12-03T23:25:58.214Z,20.30
2022-12-03T23:28:25.962Z,18.50
2022-12-03T23:30:54.935Z,18.50
2022-12-03T23:33:22.536Z,17.52
2022-12-03T23:35:50.262Z,18.58
2022-12-03T23:38:17.815Z,20.73
2022-12-03T23:40:48.236Z,24.10
2022-12-03T23:43:16.109Z,23.92
2022-12-03T23:45:43.659Z,21.63
2022-12-03T23:48:15.521Z,29.38
2022-12-03T23:50:56.118Z,24.67
2022-12-03T23:53:23.759Z,19.83
2022-12-03T23:55:51.242Z,25.83
2022-12-03T23:58:18.727Z,27.25
